Time;durP1;ratioP1;P1;durP2;ratioP2;P2;SDS_P1;SDS_P2;PMS_P1;PMS_P2;Temp;Humidity;BMP_temperature;BMP_pressure;BME280_temperature;BME280_humidity;BME280_pressure;Samples;Min_cycle;Max_cycle;Signal;HPM_P1;HPM_P2
2022/01/11 00:00:41;;;;;;;4.57;3.83;;;;;;;16.92;52.14;103026.25;4871206;29;20034;-78
2022/01/11 00:03:07;;;;;;;4.20;3.80;;;;;;;16.90;52.01;103018.41;4873338;29;20029;-78
2022/01/11 00:05:39;;;;;;;4.90;4.40;;;;;;;16.91;51.73;103027.09;4841902;29;20407;-78
2022/01/11 00:08:08;;;;;;;4.90;4.40;;;;;;;16.91;51.76;103032.28;4858612;29;20446;-78
2022/01/11 00:10:45;;;;;;;5.35;4.25;;;;;;;16.90;51.99;103028.81;4856665;29;20037;-78
2022/01/11 00:13:11;;;;;;;5.45;4.30;;;;;;;16.89;51.97;103027.03;4860313;29;20038;-77
2022/01/11 00:15:36;;;;;;;4.57;3.95;;;;;;;16.90;51.68;103030.50;4861043;29;20042;-78
2022/01/11 00:18:02;;;;;;;4.45;4.05;;;;;;;16.88;51.88;103020.09;4875069;29;20434;-78
2022/01/11 00:20:28;;;;;;;6.38;4.28;;;;;;;16.89;51.88;103024.44;4868190;29;20041;-78
2022/01/11 00:25:27;;;;;;;4.47;4.07;;;;;;;16.87;52.08;103039.13;4864555;29;20497;-78
2022/01/11 00:27:52;;;;;;;4.90;4.47;;;;;;;16.86;51.88;103032.16;4854546;29;20058;-77
2022/01/11 00:30:18;;;;;;;4.72;3.85;;;;;;;16.88;51.71;103040.91;4853779;29;20042;-78
2022/01/11 00:32:49;;;;;;;4.80;4.30;;;;;;;16.86;51.68;103029.56;4837047;29;20045;-78
2022/01/11 00:35:16;;;;;;;4.57;4.07;;;;;;;16.88;51.83;103029.63;4820820;29;20443;-78
2022/01/11 00:37:43;;;;;;;4.20;3.80;;;;;;;16.86;52.07;103030.44;4819247;29;20049;-78
2022/01/11 00:40:09;;;;;;;4.40;3.90;;;;;;;16.88;52.37;103027.03;4819038;29;20038;-78
2022/01/11 00:42:35;;;;;;;4.25;3.83;;;;;;;16.87;52.35;103026.13;4818636;29;20045;-78
2022/01/11 00:45:03;;;;;;;4.03;3.63;;;;;;;16.87;52.10;103028.72;4833963;29;20496;-78
2022/01/11 00:47:28;;;;;;;5.50;4.38;;;;;;;16.88;52.30;103020.09;4849880;29;20478;-78
2022/01/11 00:49:54;;;;;;;4.22;3.83;;;;;;;16.88;52.17;103020.09;4833015;29;20117;-78
2022/01/11 00:52:19;;;;;;;4.40;4.00;;;;;;;16.88;52.30;103019.22;4854680;29;20046;-77
2022/01/11 00:54:45;;;;;;;4.20;3.35;;;;;;;16.88;52.29;103032.22;4823504;29;20044;-78
2022/01/11 00:57:10;;;;;;;5.45;3.70;;;;;;;16.88;52.03;103035.69;4820202;29;20045;-78
2022/01/11 00:59:36;;;;;;;4.03;3.63;;;;;;;16.89;51.77;103031.38;4820514;29;20034;-78
2022/01/11 01:02:01;;;;;;;5.20;3.63;;;;;;;16.89;52.20;103031.38;4819224;29;20451;-77
2022/01/11 01:04:28;;;;;;;4.25;3.63;;;;;;;16.90;52.16;103026.22;4832119;29;20046;-78
2022/01/11 01:06:53;;;;;;;4.80;3.58;;;;;;;16.89;52.24;103041.78;4832037;29;20103;-78
2022/01/11 01:09:19;;;;;;;3.70;3.30;;;;;;;16.90;52.28;103044.41;4833112;29;20069;-78
2022/01/11 01:11:45;;;;;;;4.13;3.50;;;;;;;16.89;52.13;103044.38;4833256;29;20069;-78
2022/01/11 01:14:11;;;;;;;4.30;3.90;;;;;;;16.91;52.19;103047.91;4833406;29;20034;-79
2022/01/11 01:16:37;;;;;;;4.55;3.70;;;;;;;16.90;52.07;103049.63;4833627;29;20030;-78
2022/01/11 01:19:03;;;;;;;4.53;3.90;;;;;;;16.90;52.26;103044.41;4849652;29;20045;-78
2022/01/11 01:21:36;;;;;;;4.55;3.60;;;;;;;16.90;52.20;103044.41;4817098;29;20140;-78
2022/01/11 01:24:02;;;;;;;4.20;3.53;;;;;;;16.91;52.20;103043.56;4817055;29;20034;-78
2022/01/11 01:26:27;;;;;;;4.05;3.63;;;;;;;16.91;52.18;103045.28;4845902;29;20493;-78
2022/01/11 01:28:53;;;;;;;3.97;3.58;;;;;;;16.90;52.24;103036.63;4824227;29;20034;-78
2022/01/11 01:31:19;;;;;;;4.00;3.50;;;;;;;16.91;52.42;103047.91;4823504;29;20132;-79
2022/01/11 01:33:45;;;;;;;4.25;3.60;;;;;;;16.91;52.19;103042.69;4824399;29;20041;-78
2022/01/11 01:36:11;;;;;;;3.42;3.10;;;;;;;16.91;52.22;103048.78;4825698;29;20052;-79
2022/01/11 01:38:38;;;;;;;3.67;3.38;;;;;;;16.90;52.20;103046.13;4826536;29;20080;-79
2022/01/11 01:41:13;;;;;;;4.15;3.75;;;;;;;16.91;52.09;103048.78;4872650;29;20049;-79
2022/01/11 01:43:39;;;;;;;4.03;3.40;;;;;;;16.90;51.88;103049.63;4837872;29;20362;-79
2022/01/11 01:46:04;;;;;;;3.88;3.40;;;;;;;16.91;52.00;103056.56;4847892;29;20041;-79
2022/01/11 01:48:30;;;;;;;3.97;3.45;;;;;;;16.91;52.16;103051.38;4833323;29;20050;-79
2022/01/11 01:50:56;;;;;;;4.20;3.72;;;;;;;16.92;51.95;103052.25;4850562;29;20042;-79
2022/01/11 01:53:22;;;;;;;3.88;3.47;;;;;;;16.91;52.08;103045.28;4852645;29;20489;-78
2022/01/11 01:55:48;;;;;;;4.03;3.55;;;;;;;16.91;52.15;103047.91;4851943;29;20102;-78
2022/01/11 01:58:15;;;;;;;3.42;3.13;;;;;;;16.90;52.25;103057.44;4847507;29;20034;-79
2022/01/11 02:00:46;;;;;;;4.60;4.10;;;;;;;16.88;52.12;103053.91;4853458;29;20048;-78
2022/01/11 02:03:13;;;;;;;4.65;4.15;;;;;;;16.89;52.37;103052.16;4840504;29;20057;-79
2022/01/11 02:05:40;;;;;;;4.78;3.92;;;;;;;16.88;52.25;103050.44;4856052;29;20082;-79
2022/01/11 02:08:07;;;;;;;5.82;3.85;;;;;;;16.86;52.31;103047.78;4824895;29;20045;-79
2022/01/11 02:10:34;;;;;;;4.00;3.60;;;;;;;16.86;52.15;103051.25;4856000;29;20041;-79
2022/01/11 02:13:02;;;;;;;4.20;3.55;;;;;;;16.86;51.97;103058.16;4854560;29;20044;-79
2022/01/11 02:15:27;;;;;;;3.90;3.50;;;;;;;16.86;52.19;103063.38;4839606;29;20074;-79
2022/01/11 02:17:53;;;;;;;4.38;3.97;;;;;;;16.86;52.27;103074.66;4854621;29;20029;-79
2022/01/11 02:20:18;;;;;;;4.60;4.18;;;;;;;16.85;52.05;103072.00;4838912;29;20052;-79
2022/01/11 02:22:44;;;;;;;4.72;4.22;;;;;;;16.86;52.15;103086.78;4854365;29;20091;-78
2022/01/11 02:25:10;;;;;;;4.53;4.13;;;;;;;16.84;52.02;103076.31;4851829;29;20064;-78
2022/01/11 02:27:35;;;;;;;5.40;4.50;;;;;;;16.84;52.06;103076.31;4845962;29;20136;-79
2022/01/11 02:30:01;;;;;;;5.45;4.10;;;;;;;16.84;52.16;103078.91;4817397;29;20128;-79
2022/01/11 02:32:26;;;;;;;5.03;4.53;;;;;;;16.84;51.76;103071.13;4852264;29;20404;-77
2022/01/11 02:34:51;;;;;;;5.00;4.40;;;;;;;16.83;52.37;103074.56;4870128;29;20041;-77
2022/01/11 02:37:17;;;;;;;5.18;4.68;;;;;;;16.82;51.87;103075.38;4838309;29;20393;-78
2022/01/11 02:39:46;;;;;;;5.57;4.97;;;;;;;16.83;51.97;103078.88;4853938;29;20053;-78
2022/01/11 02:42:12;;;;;;;5.20;4.68;;;;;;;16.82;51.82;103065.00;4854659;29;20034;-77
2022/01/11 02:44:37;;;;;;;5.68;4.65;;;;;;;16.82;51.82;103075.38;4854166;29;20045;-79
2022/01/11 02:47:03;;;;;;;4.90;4.40;;;;;;;16.82;51.72;103080.59;4874991;29;20052;-76
2022/01/11 02:49:29;;;;;;;5.60;4.70;;;;;;;16.82;52.12;103077.13;4875934;29;20044;-77
2022/01/11 02:51:54;;;;;;;4.95;4.43;;;;;;;16.82;52.15;103082.31;4859331;29;20074;-78
2022/01/11 02:54:21;;;;;;;4.95;4.45;;;;;;;16.82;51.95;103080.59;4873485;29;20062;-79
2022/01/11 02:56:46;;;;;;;5.90;4.47;;;;;;;16.83;51.90;103089.28;4856801;29;20080;-79
2022/01/11 02:59:11;;;;;;;5.18;4.50;;;;;;;16.83;52.09;103099.66;4826578;29;20042;-79
2022/01/11 03:01:37;;;;;;;5.80;4.95;;;;;;;16.83;51.92;103104.88;4857475;29;20069;-79
2022/01/11 03:04:02;;;;;;;5.20;4.70;;;;;;;16.85;52.14;103098.00;4842430;29;20045;-79
2022/01/11 03:06:28;;;;;;;5.45;4.68;;;;;;;16.83;51.85;103091.88;4854329;29;20074;-78
2022/01/11 03:08:53;;;;;;;5.75;4.88;;;;;;;16.84;51.93;103096.25;4831362;29;20046;-79
2022/01/11 03:11:21;;;;;;;5.35;4.85;;;;;;;16.85;51.77;103103.19;4850205;29;20046;-79
2022/01/11 03:13:47;;;;;;;5.90;5.10;;;;;;;16.84;52.12;103094.53;4853145;29;20097;-78
2022/01/11 03:16:16;;;;;;;5.55;4.90;;;;;;;16.85;52.08;103090.19;4855353;29;20044;-77
2022/01/11 03:18:41;;;;;;;5.05;4.55;;;;;;;16.84;51.99;103088.44;4853506;29;20037;-77
2022/01/11 03:21:07;;;;;;;5.63;5.03;;;;;;;16.85;51.90;103080.69;4853594;29;20033;-79
2022/01/11 03:23:32;;;;;;;6.32;5.20;;;;;;;16.84;51.82;103068.53;4824296;29;20044;-78
2022/01/11 03:26:01;;;;;;;6.88;5.82;;;;;;;16.85;51.88;103066.78;4842839;29;20061;-76
2022/01/11 03:28:26;;;;;;;6.50;5.57;;;;;;;16.85;51.83;103061.59;4859749;29;20038;-77
2022/01/11 03:30:53;;;;;;;5.95;5.28;;;;;;;16.85;51.77;103065.09;4857785;29;20052;-77
2022/01/11 03:33:18;;;;;;;5.90;5.30;;;;;;;16.85;51.89;103072.91;4842270;29;20493;-77
2022/01/11 03:35:48;;;;;;;6.07;5.40;;;;;;;16.86;51.83;103082.44;4842488;29;20041;-79
2022/01/11 03:38:15;;;;;;;6.38;5.18;;;;;;;16.87;51.74;103098.94;4857377;29;20026;-80
2022/01/11 03:40:42;;;;;;;6.25;5.55;;;;;;;16.86;52.04;103086.78;4856960;29;20042;-79
2022/01/11 03:43:08;;;;;;;6.05;5.45;;;;;;;16.85;52.00;103082.41;4873186;29;20078;-79
2022/01/11 03:45:34;;;;;;;5.75;5.05;;;;;;;16.86;51.87;103081.56;4855822;29;20097;-79
2022/01/11 03:48:01;;;;;;;7.10;5.82;;;;;;;16.86;51.84;103071.19;4871172;29;20046;-80
2022/01/11 03:50:29;;;;;;;6.13;5.53;;;;;;;16.86;51.73;103072.03;4848719;29;20073;-80
2022/01/11 03:53:14;;;;;;;6.47;5.78;;;;;;;16.86;52.04;103066.84;4847114;29;20045;-80
2022/01/11 03:55:58;;;;;;;6.28;5.65;;;;;;;16.86;52.03;103066.84;4824421;29;20048;-79
2022/01/11 03:58:26;;;;;;;6.85;6.00;;;;;;;16.86;51.91;103069.44;4826806;29;20044;-80
2022/01/11 04:00:52;;;;;;;6.05;5.45;;;;;;;16.87;52.02;103078.13;4838406;29;20068;-80
2022/01/11 04:03:18;;;;;;;6.32;5.72;;;;;;;16.86;52.32;103073.78;4854076;29;20057;-79
2022/01/11 04:05:45;;;;;;;6.80;5.97;;;;;;;16.85;52.19;103080.69;4853197;29;20037;-79
2022/01/11 04:08:11;;;;;;;7.38;6.38;;;;;;;16.84;51.93;103084.13;4854478;29;20113;-80
2022/01/11 04:10:37;;;;;;;6.88;6.18;;;;;;;16.84;51.96;103088.44;4871747;29;20487;-79
2022/01/11 04:13:03;;;;;;;7.05;6.35;;;;;;;16.84;52.04;103083.25;4854888;29;20057;-78
2022/01/11 04:15:28;;;;;;;7.53;6.30;;;;;;;16.84;51.85;103088.44;4853568;29;20069;-79
2022/01/11 04:17:54;;;;;;;7.13;6.40;;;;;;;16.82;51.91;103083.19;4838652;29;20038;-79
2022/01/11 04:20:22;;;;;;;7.68;6.40;;;;;;;16.82;51.95;103078.00;4853602;29;20056;-79
2022/01/11 04:22:48;;;;;;;7.00;6.30;;;;;;;16.82;51.96;103085.78;4824516;29;20041;-79
2022/01/11 04:25:14;;;;;;;7.50;6.70;;;;;;;16.82;52.01;103095.31;4866647;29;20054;-79
2022/01/11 04:27:40;;;;;;;7.68;6.55;;;;;;;16.82;51.86;103098.78;4835640;29;20083;-80
2022/01/11 04:30:05;;;;;;;7.03;6.32;;;;;;;16.82;51.94;103101.41;4818583;29;20046;-79
2022/01/11 04:32:31;;;;;;;7.00;6.30;;;;;;;16.83;52.00;103086.66;4831905;29;20486;-79
2022/01/11 04:34:57;;;;;;;7.07;6.38;;;;;;;16.84;51.89;103101.44;4849373;29;20050;-78
2022/01/11 04:37:22;;;;;;;8.05;6.57;;;;;;;16.83;51.90;103099.66;4850735;29;20106;-79
2022/01/11 04:39:48;;;;;;;7.05;6.18;;;;;;;16.83;51.76;103097.06;4836302;29;20038;-79
2022/01/11 04:42:14;;;;;;;6.78;5.95;;;;;;;16.84;51.91;103094.53;4836568;29;20034;-77
2022/01/11 04:44:39;;;;;;;7.00;6.30;;;;;;;16.83;52.05;103090.19;4836519;29;20071;-78
2022/01/11 04:47:05;;;;;;;7.47;6.03;;;;;;;16.83;51.85;103092.78;4836911;29;20077;-76
2022/01/11 04:49:31;;;;;;;7.88;6.30;;;;;;;16.83;51.88;103090.19;4822846;29;20513;-76
2022/01/11 04:51:56;;;;;;;7.63;6.55;;;;;;;16.83;52.11;103089.28;4837107;29;20190;-78
2022/01/11 04:54:22;;;;;;;7.68;6.88;;;;;;;16.82;52.02;103093.59;4822472;29;20080;-79
2022/01/11 04:56:47;;;;;;;7.55;6.65;;;;;;;16.82;51.87;103091.00;4838889;29;20048;-79
2022/01/11 04:59:13;;;;;;;7.43;6.65;;;;;;;16.82;51.62;103085.78;4837377;29;20044;-79
2022/01/11 05:01:40;;;;;;;7.72;6.90;;;;;;;16.81;51.71;103083.13;4807936;29;20042;-79
2022/01/11 05:04:05;;;;;;;7.78;6.97;;;;;;;16.81;52.01;103086.66;4823677;29;20050;-77
2022/01/11 05:06:31;;;;;;;8.35;7.15;;;;;;;16.81;51.82;103093.53;4838347;29;20053;-77
2022/01/11 05:08:56;;;;;;;7.10;6.40;;;;;;;16.81;51.98;103090.94;4823941;29;20034;-79
2022/01/11 05:11:22;;;;;;;7.55;6.72;;;;;;;16.81;51.99;103090.94;4822553;29;20065;-78
2022/01/11 05:13:48;;;;;;;7.90;7.10;;;;;;;16.81;51.91;103102.25;4815894;29;20034;-79
2022/01/11 05:16:13;;;;;;;7.35;6.13;;;;;;;16.82;51.62;103103.13;4831519;29;20068;-79
2022/01/11 05:18:39;;;;;;;7.00;6.30;;;;;;;16.82;51.72;103100.53;4815303;29;20128;-77
2022/01/11 05:21:04;;;;;;;6.85;6.25;;;;;;;16.82;51.86;103097.91;4833734;29;20038;-76
2022/01/11 05:23:30;;;;;;;6.97;6.28;;;;;;;16.82;52.01;103095.31;4838285;29;20045;-77
2022/01/11 05:25:55;;;;;;;7.07;6.38;;;;;;;16.82;51.68;103100.53;4832812;29;20073;-79
2022/01/11 05:28:21;;;;;;;7.03;6.38;;;;;;;16.81;51.84;103089.25;4871042;29;20040;-77
2022/01/11 05:30:46;;;;;;;7.53;6.25;;;;;;;16.82;51.75;103088.41;4871001;29;20147;-76
2022/01/11 05:33:12;;;;;;;7.25;6.38;;;;;;;16.82;51.74;103083.19;4839158;29;20048;-75
2022/01/11 05:35:37;;;;;;;7.30;6.50;;;;;;;16.83;51.73;103091.88;4859960;29;20049;-76
2022/01/11 05:38:03;;;;;;;8.07;6.80;;;;;;;16.83;51.98;103094.47;4873977;29;20037;-76
2022/01/11 05:40:28;;;;;;;7.00;6.30;;;;;;;16.82;51.82;103090.13;4872331;29;20066;-76
2022/01/11 05:42:54;;;;;;;6.75;6.05;;;;;;;16.83;51.61;103089.28;4853967;29;20072;-78
2022/01/11 05:45:19;;;;;;;7.03;6.32;;;;;;;16.84;51.94;103098.84;4872351;29;20048;-79
2022/01/11 05:47:47;;;;;;;6.32;5.72;;;;;;;16.81;51.88;103104.84;4841542;29;20073;-78
2022/01/11 05:50:13;;;;;;;7.55;6.85;;;;;;;16.84;51.84;103115.31;4856618;29;20041;-79
2022/01/11 05:52:39;;;;;;;7.95;6.78;;;;;;;16.83;51.68;103118.78;4855600;29;20124;-78
2022/01/11 05:55:07;;;;;;;6.50;5.80;;;;;;;16.84;51.69;103127.47;4851799;29;20057;-78
2022/01/11 05:57:33;;;;;;;6.65;5.97;;;;;;;16.82;51.66;103117.00;4851375;29;20097;-78
2022/01/11 05:59:58;;;;;;;7.25;6.53;;;;;;;16.82;51.88;103119.59;4854919;29;20064;-78
2022/01/11 06:02:24;;;;;;;6.95;6.25;;;;;;;16.82;51.72;103117.00;4843548;29;20041;-77
2022/01/11 06:04:49;;;;;;;6.80;6.05;;;;;;;16.83;51.73;103120.47;4841163;29;20052;-78
2022/01/11 06:07:15;;;;;;;6.80;6.13;;;;;;;16.83;51.86;103116.19;4855214;29;20053;-78
2022/01/11 06:09:40;;;;;;;6.75;6.10;;;;;;;16.83;51.88;103123.97;4852817;29;20041;-78
2022/01/11 06:12:06;;;;;;;6.47;5.88;;;;;;;16.83;51.63;103130.88;4856462;29;20061;-79
2022/01/11 06:14:32;;;;;;;7.95;6.65;;;;;;;16.84;51.88;103140.47;4856024;29;20044;-79
2022/01/11 06:16:57;;;;;;;8.30;6.57;;;;;;;16.84;51.68;103141.34;4853740;29;20041;-77
2022/01/11 06:19:22;;;;;;;8.43;6.82;;;;;;;16.83;51.93;103142.19;4860086;29;20075;-78
2022/01/11 06:21:48;;;;;;;11.23;7.35;;;;;;;16.84;51.78;103140.47;4858953;29;20070;-80
2022/01/11 06:24:13;;;;;;;9.48;6.68;;;;;;;16.84;51.98;103141.34;4855329;29;20073;-80
2022/01/11 06:26:39;;;;;;;12.45;8.27;;;;;;;16.85;51.93;103139.59;4839050;29;20523;-78
2022/01/11 06:29:04;;;;;;;8.38;6.80;;;;;;;16.84;51.93;103133.53;4854236;29;20034;-79
2022/01/11 06:31:30;;;;;;;9.48;7.50;;;;;;;16.86;51.98;103136.19;4854778;29;20041;-78
2022/01/11 06:33:56;;;;;;;8.50;6.70;;;;;;;16.86;52.03;103142.25;4855782;29;20049;-78
2022/01/11 06:36:21;;;;;;;8.77;7.07;;;;;;;16.85;52.00;103158.72;4851218;29;20041;-78
2022/01/11 06:38:47;;;;;;;10.45;7.13;;;;;;;16.86;52.01;103151.78;4831665;29;20037;-78
2022/01/11 06:41:13;;;;;;;10.57;7.55;;;;;;;16.86;52.19;103151.78;4865687;29;20070;-78
2022/01/11 06:43:39;;;;;;;9.00;6.72;;;;;;;16.86;52.21;103149.19;4868397;29;20045;-78
2022/01/11 06:46:05;;;;;;;10.40;6.95;;;;;;;16.85;52.15;103155.22;4823103;29;20045;-77
2022/01/11 06:48:31;;;;;;;8.27;6.68;;;;;;;16.85;52.56;103156.13;4855028;29;20056;-79
2022/01/11 06:50:57;;;;;;;9.70;7.63;;;;;;;16.87;52.26;103158.75;4871793;29;20477;-79
2022/01/11 06:53:22;;;;;;;10.65;7.00;;;;;;;16.86;52.38;103163.06;4852608;29;20102;-79
2022/01/11 06:55:49;;;;;;;8.25;6.93;;;;;;;16.86;52.16;103157.00;4822014;29;20042;-79
2022/01/11 06:58:16;;;;;;;10.10;7.65;;;;;;;16.86;52.38;103164.78;4849176;29;20033;-79
2022/01/11 07:00:42;;;;;;;11.85;7.72;;;;;;;16.85;52.35;103157.81;4850163;29;20037;-80
2022/01/11 07:03:07;;;;;;;8.35;6.85;;;;;;;16.86;52.24;103167.41;4869971;29;20503;-79
2022/01/11 07:05:32;;;;;;;11.57;6.97;;;;;;;16.86;52.42;103165.66;4837324;29;20049;-78
2022/01/11 07:07:58;;;;;;;10.43;6.90;;;;;;;16.86;52.06;103165.66;4821272;29;20041;-78
2022/01/11 07:10:23;;;;;;;9.88;6.80;;;;;;;16.85;52.24;103166.53;4852456;29;20064;-78
2022/01/11 07:12:49;;;;;;;8.40;6.88;;;;;;;16.86;52.15;103181.28;4852588;29;20051;-80
2022/01/11 07:15:14;;;;;;;8.10;6.93;;;;;;;16.86;52.12;103172.59;4838256;29;20260;-79
2022/01/11 07:17:42;;;;;;;8.05;6.95;;;;;;;16.87;52.55;103184.75;4852381;29;20048;-79
2022/01/11 07:20:08;;;;;;;11.05;7.40;;;;;;;16.87;52.19;103179.53;4848095;29;20174;-79
2022/01/11 07:22:34;;;;;;;11.18;6.90;;;;;;;16.87;52.31;103187.34;4816127;29;20492;-79
2022/01/11 07:24:59;;;;;;;10.43;7.10;;;;;;;16.86;52.34;103178.66;4859828;29;20041;-79
2022/01/11 07:27:25;;;;;;;7.93;6.85;;;;;;;16.88;52.13;103183.06;4811843;29;20123;-79
2022/01/11 07:29:51;;;;;;;10.85;7.22;;;;;;;16.87;52.10;103182.16;4827387;29;20042;-80
2022/01/11 07:32:16;;;;;;;9.43;6.63;;;;;;;16.87;52.08;103169.16;4827637;29;20386;-80
2022/01/11 07:34:44;;;;;;;8.13;6.45;;;;;;;16.87;52.21;103174.34;4827082;29;20045;-79
2022/01/11 07:37:09;;;;;;;8.15;6.70;;;;;;;16.88;52.19;103176.13;4812821;29;20450;-79
2022/01/11 07:39:35;;;;;;;12.77;6.80;;;;;;;16.88;51.93;103176.13;4844692;29;20038;-79
2022/01/11 07:42:00;;;;;;;7.10;6.35;;;;;;;16.89;52.00;103179.59;4844573;29;20042;-80
2022/01/11 07:44:26;;;;;;;8.20;6.30;;;;;;;16.89;52.11;103182.22;4813173;29;20038;-79
2022/01/11 07:46:52;;;;;;;7.50;6.03;;;;;;;16.88;52.19;103189.13;4813314;29;20049;-79
2022/01/11 07:49:19;;;;;;;6.63;6.00;;;;;;;16.90;51.97;103183.94;4828895;29;20042;-80
2022/01/11 07:51:44;;;;;;;7.28;6.35;;;;;;;16.88;52.10;103181.34;4844445;29;20042;-80
2022/01/11 07:54:10;;;;;;;7.82;6.47;;;;;;;16.88;51.90;103194.34;4829834;29;20532;-80
2022/01/11 07:56:35;;;;;;;7.95;6.20;;;;;;;16.89;51.95;103187.41;4826602;29;20136;-80
2022/01/11 07:59:01;;;;;;;7.25;6.18;;;;;;;16.88;51.98;103190.84;4846431;29;20038;-80
2022/01/11 08:01:26;;;;;;;8.05;6.57;;;;;;;16.90;51.81;103197.88;4831742;29;20069;-81
2022/01/11 08:03:52;;;;;;;7.38;6.20;;;;;;;16.89;51.95;103187.41;4841772;29;20042;-80
2022/01/11 08:06:17;;;;;;;7.88;6.00;;;;;;;16.90;51.77;103199.56;4820284;29;20045;-80
2022/01/11 08:08:42;;;;;;;7.25;6.28;;;;;;;16.90;51.70;103192.66;4834743;29;20038;-80
2022/01/11 08:11:10;;;;;;;6.82;5.97;;;;;;;16.90;51.84;103208.28;4817359;29;20053;-80
2022/01/11 08:13:36;;;;;;;7.13;6.00;;;;;;;16.90;52.03;103197.88;4831891;29;20064;-80
2022/01/11 08:16:02;;;;;;;7.63;5.95;;;;;;;16.87;51.59;103197.75;4802340;29;20038;-80
2022/01/11 08:18:27;;;;;;;6.47;5.72;;;;;;;16.88;51.70;103202.13;4831983;29;20545;-81
2022/01/11 08:20:52;;;;;;;6.72;5.65;;;;;;;16.88;51.78;103206.47;4831858;29;20048;-80
2022/01/11 08:23:18;;;;;;;6.85;5.90;;;;;;;16.89;51.67;103209.09;4831754;29;20409;-80
2022/01/11 08:25:43;;;;;;;7.07;5.57;;;;;;;16.90;51.90;103217.75;4823986;29;20053;-81
2022/01/11 08:28:13;;;;;;;7.10;5.60;;;;;;;16.90;51.67;103210.88;4834626;29;20037;-80
2022/01/11 08:30:39;;;;;;;6.90;5.10;;;;;;;16.92;51.80;103213.50;4864629;29;20044;-81
2022/01/11 08:33:04;;;;;;;5.88;5.30;;;;;;;16.93;51.80;103220.47;4871638;29;20021;-83
2022/01/11 08:35:33;;;;;;;6.50;5.82;;;;;;;16.92;51.63;103219.59;4871456;29;20101;-83
2022/01/11 08:37:59;;;;;;;5.65;4.97;;;;;;;16.94;51.54;103212.72;4869198;29;20508;-80
2022/01/11 08:40:26;;;;;;;6.15;5.55;;;;;;;16.93;51.57;103213.56;4877458;29;20037;-81
2022/01/11 08:42:52;;;;;;;5.82;5.22;;;;;;;16.94;51.59;103214.44;4875367;29;20033;-80
2022/01/11 08:45:18;;;;;;;6.15;5.55;;;;;;;16.95;51.38;103232.69;4851463;29;20034;-80
2022/01/11 08:47:43;;;;;;;6.70;5.13;;;;;;;16.96;51.52;103263.09;4850689;29;20404;-80
2022/01/11 08:50:13;;;;;;;6.50;5.25;;;;;;;16.95;51.48;103256.09;4835292;29;20133;-80
2022/01/11 08:52:40;;;;;;;6.43;5.00;;;;;;;16.95;51.53;103243.09;4867618;29;20445;-80
2022/01/11 08:55:07;;;;;;;6.70;5.20;;;;;;;16.95;51.48;103245.69;4834916;29;20041;-80
2022/01/11 08:57:33;;;;;;;5.55;4.82;;;;;;;16.95;51.36;103250.03;4849696;29;20389;-79
2022/01/11 08:59:59;;;;;;;5.72;4.97;;;;;;;16.95;51.41;103245.69;4850137;29;20041;-80
2022/01/11 09:02:25;;;;;;;5.80;4.60;;;;;;;16.94;51.31;103246.53;4833842;29;20060;-80
2022/01/11 09:04:53;;;;;;;6.28;5.07;;;;;;;16.95;51.30;103242.22;4865595;29;20097;-80
2022/01/11 09:07:19;;;;;;;5.28;4.47;;;;;;;16.95;51.34;103237.88;4848745;29;20072;-80
2022/01/11 09:09:45;;;;;;;5.25;4.60;;;;;;;16.97;51.27;103244.03;4833555;29;20342;-80
2022/01/11 09:12:13;;;;;;;5.85;5.25;;;;;;;16.96;51.37;103241.38;4821522;29;20054;-79
2022/01/11 09:17:25;;;;;;;5.53;4.30;;;;;;;16.96;51.55;103239.69;4890122;29;20053;-81
2022/01/11 09:19:51;;;;;;;5.38;4.50;;;;;;;16.95;51.30;103248.28;4882955;29;20496;-79
2022/01/11 09:22:17;;;;;;;4.80;4.30;;;;;;;16.96;51.21;103251.78;4886750;29;20044;-77
2022/01/11 09:24:42;;;;;;;5.15;4.30;;;;;;;16.95;51.34;103248.28;4882791;29;20083;-78
2022/01/11 09:27:08;;;;;;;5.32;4.43;;;;;;;16.96;51.39;103254.38;4865706;29;20066;-78
2022/01/11 09:29:36;;;;;;;5.30;4.45;;;;;;;16.96;51.44;103247.47;4881425;29;20055;-78
2022/01/11 09:32:03;;;;;;;5.50;4.25;;;;;;;16.97;51.31;103249.22;4866314;29;20515;-78
2022/01/11 09:34:28;;;;;;;5.00;4.25;;;;;;;16.97;51.35;103245.75;4883073;29;20037;-78
2022/01/11 09:36:54;;;;;;;4.95;4.18;;;;;;;16.97;51.46;103241.44;4874794;29;20101;-79
2022/01/11 09:39:20;;;;;;;4.65;4.15;;;;;;;16.98;51.58;103245.78;4886345;29;20033;-78
2022/01/11 09:41:45;;;;;;;4.80;4.30;;;;;;;16.98;51.21;103237.97;4882822;29;20032;-78
2022/01/11 09:44:11;;;;;;;5.40;4.20;;;;;;;17.01;51.45;103230.28;4881041;29;20041;-78
2022/01/11 09:46:37;;;;;;;4.80;4.18;;;;;;;17.02;51.53;103224.22;4880776;29;20049;-78
2022/01/11 09:49:04;;;;;;;5.13;3.85;;;;;;;17.04;51.12;103234.69;4865396;29;20033;-78
2022/01/11 09:51:31;;;;;;;5.05;3.90;;;;;;;17.05;51.11;103231.28;4865295;29;20515;-78
2022/01/11 09:53:57;;;;;;;5.40;3.97;;;;;;;17.08;51.24;103243.50;4882545;29;20120;-78
2022/01/11 09:56:23;;;;;;;5.68;3.88;;;;;;;17.06;51.20;103249.50;4880931;29;20120;-78
2022/01/11 09:58:48;;;;;;;4.93;4.10;;;;;;;17.08;51.22;103254.78;4865518;29;20036;-78
2022/01/11 10:01:14;;;;;;;5.32;4.20;;;;;;;17.07;51.15;103255.59;4865644;29;20564;-79
2022/01/11 10:03:59;;;;;;;4.28;3.88;;;;;;;17.08;51.12;103261.69;4881417;29;20044;-78
2022/01/11 10:06:25;;;;;;;4.40;4.00;;;;;;;17.09;51.24;103255.66;4881634;29;20044;-79
2022/01/11 10:09:07;;;;;;;4.05;3.65;;;;;;;17.09;51.27;103255.66;4865180;29;20041;-78
2022/01/11 10:11:44;;;;;;;4.47;3.85;;;;;;;17.08;50.99;103259.97;4880472;29;20128;-78
2022/01/11 10:14:37;;;;;;;4.47;3.92;;;;;;;17.09;51.09;103266.94;4880580;29;20047;-78
2022/01/11 10:17:24;;;;;;;4.13;3.72;;;;;;;17.09;51.24;103266.94;4861322;29;20069;-78
2022/01/11 10:19:52;;;;;;;5.20;3.97;;;;;;;17.11;51.06;103277.38;4863307;29;20030;-78
2022/01/11 10:22:21;;;;;;;4.50;3.90;;;;;;;17.12;51.35;103279.19;4862926;29;20048;-78
2022/01/11 10:24:54;;;;;;;5.63;3.88;;;;;;;17.12;51.00;103273.97;4861732;29;20041;-78
2022/01/11 10:27:26;;;;;;;4.18;3.60;;;;;;;17.11;51.08;103277.38;4862478;29;20402;-78
2022/01/11 10:29:53;;;;;;;4.68;3.72;;;;;;;17.12;50.95;103271.38;4864036;29;20118;-78
2022/01/11 10:32:24;;;;;;;4.03;3.40;;;;;;;17.13;51.14;103267.91;4855223;29;20033;-78
2022/01/11 10:34:56;;;;;;;4.40;3.50;;;;;;;17.13;51.21;103274.00;4871160;29;20045;-79
2022/01/11 10:37:31;;;;;;;4.45;3.72;;;;;;;17.14;51.03;103278.38;4866834;29;20029;-78
2022/01/11 10:40:13;;;;;;;4.18;3.60;;;;;;;17.16;51.17;103286.22;4866049;29;20033;-78
2022/01/11 10:42:45;;;;;;;5.05;3.35;;;;;;;17.16;50.97;103279.31;4862833;29;20041;-78
2022/01/11 10:45:35;;;;;;;6.22;3.28;;;;;;;17.19;50.89;103286.31;4864394;29;20045;-79
2022/01/11 10:48:25;;;;;;;4.10;3.60;;;;;;;17.21;50.82;103280.31;4852083;29;20485;-78
2022/01/11 10:50:56;;;;;;;3.88;3.22;;;;;;;17.23;51.04;103283.88;4862510;29;20045;-79
2022/01/11 10:53:27;;;;;;;4.75;3.47;;;;;;;17.26;51.00;103291.75;4862715;29;20044;-78
2022/01/11 10:55:58;;;;;;;3.85;3.25;;;;;;;17.28;50.95;103284.88;4861614;29;20040;-78
2022/01/11 10:58:25;;;;;;;3.75;3.30;;;;;;;17.29;51.02;103288.38;4862116;29;20029;-78
2022/01/11 11:00:53;;;;;;;3.65;3.25;;;;;;;17.27;50.88;103290.06;4847331;29;20128;-78
2022/01/11 11:03:29;;;;;;;3.90;3.42;;;;;;;17.28;50.88;103289.19;4862493;29;20045;-78
2022/01/11 11:05:58;;;;;;;4.15;3.53;;;;;;;17.27;50.54;103290.06;4863690;29;20030;-78
2022/01/11 11:08:39;;;;;;;3.40;3.08;;;;;;;17.26;50.95;103283.94;4866075;29;20037;-78
2022/01/11 11:11:09;;;;;;;3.70;3.30;;;;;;;17.30;50.74;103289.25;4869527;29;20095;-78
2022/01/11 11:13:35;;;;;;;4.65;3.42;;;;;;;17.30;50.68;103282.34;4866365;29;20136;-78
2022/01/11 11:16:13;;;;;;;3.90;3.50;;;;;;;17.33;50.84;103291.94;4867041;29;20109;-82
2022/01/11 11:18:44;;;;;;;3.92;3.17;;;;;;;17.34;50.72;103289.41;4874614;29;20034;-81
2022/01/11 11:21:32;;;;;;;3.50;3.20;;;;;;;17.38;50.75;103293.00;4880322;29;20033;-81
2022/01/11 11:24:02;;;;;;;3.88;3.20;;;;;;;17.38;50.86;103290.38;4880145;29;20045;-82
2022/01/11 11:26:36;;;;;;;3.63;2.80;;;;;;;17.39;50.68;103290.41;4883299;29;20493;-81
2022/01/11 11:29:03;;;;;;;3.88;3.15;;;;;;;17.39;50.70;103289.53;4874892;29;20131;-79